createdAt,value
2019-04-05T00:00:47.622Z,57.32
2019-04-05T00:03:19.488Z,57.64
2019-04-05T00:05:51.444Z,57.76
2019-04-05T00:08:24.349Z,57.75
2019-04-05T00:10:56.608Z,59.03
2019-04-05T00:13:28.436Z,59.24
2019-04-05T00:16:00.372Z,59.72
2019-04-05T00:18:32.245Z,59.51
2019-04-05T00:21:04.702Z,59.82
2019-04-05T00:23:35.887Z,60.05
2019-04-05T00:26:07.671Z,60.55
2019-04-05T00:28:39.652Z,60.65
2019-04-05T00:31:11.624Z,60.52
2019-04-05T00:33:43.576Z,61.18
2019-04-05T00:36:15.532Z,61.19
2019-04-05T00:38:46.708Z,61.38
2019-04-05T00:41:17.852Z,61.11
2019-04-05T00:43:49.580Z,61.25
2019-04-05T00:46:21.464Z,61.67
2019-04-05T00:48:53.320Z,62.06
2019-04-05T00:51:25.374Z,61.91
2019-04-05T00:53:57.348Z,61.46
2019-04-05T00:56:29.237Z,61.79
2019-04-05T00:59:01.097Z,61.89
2019-04-05T01:01:33.496Z,62.49
2019-04-05T01:04:05.416Z,62.53
2019-04-05T01:06:37.228Z,62.30
2019-04-05T01:09:09.414Z,62.23
2019-04-05T01:11:40.786Z,62.21
2019-04-05T01:14:12.068Z,62.14
2019-04-05T01:16:45.344Z,61.66
2019-04-05T01:19:17.546Z,61.64
2019-04-05T01:21:51.212Z,61.88
2019-04-05T01:24:24.454Z,61.50
2019-04-05T01:26:59.232Z,61.33
2019-04-05T01:29:31.136Z,61.89
2019-04-05T01:32:02.930Z,62.47
2019-04-05T01:34:34.155Z,61.81
2019-04-05T01:37:05.988Z,62.10
2019-04-05T01:39:37.847Z,62.79
2019-04-05T01:42:09.673Z,62.98
2019-04-05T01:44:42.153Z,63.61
2019-04-05T01:47:13.321Z,63.63
2019-04-05T01:49:45.127Z,64.17
2019-04-05T01:52:17.151Z,63.95
2019-04-05T01:54:49.058Z,64.67
2019-04-05T01:57:20.254Z,64.81
2019-04-05T01:59:52.177Z,65.63
2019-04-05T02:02:24.219Z,65.51
2019-04-05T02:04:56.219Z,64.60
2019-04-05T02:07:28.048Z,64.33
2019-04-05T02:10:00.683Z,63.88
2019-04-05T02:12:32.475Z,64.30
2019-04-05T02:15:04.722Z,64.39
2019-04-05T02:17:36.613Z,64.54
2019-04-05T02:20:09.094Z,65.09
2019-04-05T02:22:40.891Z,65.82
2019-04-05T02:25:12.725Z,66.37
2019-04-05T02:27:43.899Z,66.46
2019-04-05T02:30:15.580Z,66.22
2019-04-05T02:32:46.791Z,66.35
2019-04-05T02:35:18.063Z,66.49
2019-04-05T02:37:49.840Z,66.52
2019-04-05T02:40:23.652Z,66.66
2019-04-05T02:42:57.739Z,67.18
2019-04-05T02:45:34.512Z,67.00
2019-04-05T02:48:10.498Z,66.96
2019-04-05T02:50:47.635Z,67.14
2019-04-05T02:53:22.115Z,67.25
2019-04-05T02:55:53.991Z,67.54
2019-04-05T02:58:27.008Z,67.64
2019-04-05T03:00:59.644Z,67.62
2019-04-05T03:03:31.658Z,67.73
2019-04-05T03:06:03.831Z,68.29
2019-04-05T03:08:36.180Z,67.99
2019-04-05T03:11:11.888Z,69.01
2019-04-05T03:13:50.498Z,69.45
2019-04-05T03:16:40.238Z,70.41
2019-04-05T03:19:22.169Z,70.89
2019-04-05T03:22:00.697Z,71.57
2019-04-05T03:24:37.139Z,72.45
2019-04-05T03:27:14.420Z,73.08
2019-04-05T03:29:47.486Z,74.02
2019-04-05T03:32:19.653Z,74.48
2019-04-05T03:34:52.380Z,76.31
2019-04-05T03:37:25.391Z,77.74
2019-04-05T03:39:58.329Z,80.87
2019-04-05T03:42:31.516Z,82.89
2019-04-05T03:45:03.365Z,84.48
2019-04-05T03:47:35.358Z,86.52
2019-04-05T03:50:07.306Z,87.56
2019-04-05T03:52:40.225Z,89.18
2019-04-05T03:55:12.199Z,91.49
2019-04-05T03:57:44.727Z,92.88
2019-04-05T04:00:16.719Z,95.32
2019-04-05T04:02:54.081Z,96.55
2019-04-05T04:05:25.871Z,98.04
2019-04-05T04:07:58.116Z,99.83
2019-04-05T04:10:31.105Z,100.00
2019-04-05T04:13:03.608Z,100.00
2019-04-05T04:15:36.306Z,99.57
2019-04-05T04:18:08.596Z,99.22
2019-04-05T04:20:49.560Z,98.07
2019-04-05T04:23:25.194Z,97.97
2019-04-05T04:25:58.794Z,96.94
2019-04-05T04:28:31.542Z,96.71
2019-04-05T04:31:06.850Z,96.69
2019-04-05T04:33:42.479Z,95.30
2019-04-05T04:36:15.690Z,94.13
2019-04-05T04:38:47.358Z,93.22
2019-04-05T04:41:18.525Z,92.42
2019-04-05T04:43:51.935Z,91.94
2019-04-05T04:46:24.535Z,92.56
2019-04-05T04:48:56.974Z,93.40
2019-04-05T04:51:28.547Z,93.30
2019-04-05T04:54:00.090Z,92.29
2019-04-05T04:56:31.594Z,92.44
2019-04-05T04:59:03.505Z,91.58
2019-04-05T05:01:35.448Z,90.28
2019-04-05T05:04:08.443Z,89.76
2019-04-05T05:06:40.550Z,89.46
2019-04-05T05:09:13.965Z,89.62
2019-04-05T05:11:45.899Z,89.71
2019-04-05T05:14:18.589Z,90.01
2019-04-05T05:16:50.068Z,90.00
2019-04-05T05:19:22.022Z,89.71
2019-04-05T05:21:54.797Z,89.30
2019-04-05T05:24:27.004Z,88.88
2019-04-05T05:26:58.242Z,88.43
2019-04-05T05:29:30.574Z,88.21
2019-04-05T05:32:01.953Z,87.52
2019-04-05T05:34:34.230Z,86.63
2019-04-05T05:37:06.394Z,86.89
2019-04-05T05:39:37.574Z,87.09
2019-04-05T05:42:09.916Z,87.10
2019-04-05T05:44:41.122Z,86.66
2019-04-05T05:47:12.262Z,86.65
2019-04-05T05:49:43.435Z,86.36
2019-04-05T05:52:15.357Z,85.76
2019-04-05T05:54:46.509Z,84.33
2019-04-05T05:57:18.269Z,84.15
2019-04-05T05:59:50.125Z,84.03
2019-04-05T06:02:22.063Z,84.07
2019-04-05T06:04:53.972Z,83.66
2019-04-05T06:07:25.882Z,83.38
2019-04-05T06:09:57.045Z,83.25
2019-04-05T06:12:28.274Z,83.05
2019-04-05T06:15:00.044Z,82.69
2019-04-05T06:17:31.924Z,82.33
2019-04-05T06:20:03.918Z,81.65
2019-04-05T06:22:35.801Z,80.89
2019-04-05T06:25:08.394Z,79.81
2019-04-05T06:27:40.705Z,78.47
2019-04-05T06:30:11.958Z,78.53
2019-04-05T06:32:43.857Z,77.94
2019-04-05T06:35:15.836Z,77.39
2019-04-05T06:37:47.769Z,76.25
2019-04-05T06:40:20.714Z,76.71
2019-04-05T06:42:52.552Z,77.28
2019-04-05T06:45:24.468Z,76.51
2019-04-05T06:47:56.426Z,76.58
2019-04-05T06:50:28.348Z,76.03
2019-04-05T06:53:00.249Z,74.73
2019-04-05T06:55:31.488Z,74.00
2019-04-05T06:58:02.635Z,72.92
2019-04-05T07:00:34.676Z,72.15
2019-04-05T07:03:06.541Z,72.18
2019-04-05T07:05:37.741Z,71.57
2019-04-05T07:08:09.549Z,70.62
2019-04-05T07:10:41.420Z,70.13
2019-04-05T07:13:13.267Z,69.67
2019-04-05T07:15:45.236Z,69.15
2019-04-05T07:18:17.044Z,68.11
2019-04-05T07:20:48.916Z,66.98
2019-04-05T07:23:20.825Z,66.06
2019-04-05T07:25:52.684Z,66.17
2019-04-05T07:28:25.271Z,65.55
2019-04-05T07:30:57.396Z,65.07
2019-04-05T07:33:29.270Z,65.28
2019-04-05T07:36:03.361Z,64.79
2019-04-05T07:38:33.964Z,64.21
2019-04-05T07:41:05.879Z,64.20
2019-04-05T07:43:40.738Z,64.09
2019-04-05T07:46:12.617Z,63.41
2019-04-05T07:48:45.346Z,62.73
2019-04-05T07:51:17.447Z,62.82
2019-04-05T07:53:48.716Z,62.31
2019-04-05T07:56:20.678Z,62.53
2019-04-05T07:58:52.740Z,61.29
2019-04-05T08:01:24.748Z,60.38
2019-04-05T08:03:58.039Z,58.66
2019-04-05T08:06:32.375Z,59.90
2019-04-05T08:09:15.909Z,58.84
2019-04-05T08:11:49.100Z,59.24
2019-04-05T08:14:22.049Z,60.14
2019-04-05T08:16:53.936Z,60.17
2019-04-05T08:19:25.805Z,60.41
2019-04-05T08:21:57.692Z,61.00
2019-04-05T08:24:29.570Z,61.25
2019-04-05T08:27:01.396Z,59.96
2019-04-05T08:29:33.262Z,57.81
2019-04-05T08:32:14.370Z,55.93
2019-04-05T08:34:38.666Z,55.62
2019-04-05T08:37:10.607Z,56.25
2019-04-05T08:39:42.526Z,58.61
2019-04-05T08:42:14.491Z,60.47
2019-04-05T08:44:46.312Z,61.66
2019-04-05T08:47:18.129Z,61.88
2019-04-05T08:49:50.026Z,62.56
2019-04-05T08:52:21.860Z,64.61
2019-04-05T08:54:53.717Z,64.97
2019-04-05T08:57:24.872Z,64.90
2019-04-05T08:59:56.708Z,65.18
2019-04-05T09:02:28.516Z,65.25
2019-04-05T09:05:00.401Z,65.14
2019-04-05T09:07:32.332Z,65.24
2019-04-05T09:10:04.424Z,65.70
2019-04-05T09:12:36.344Z,65.82
2019-04-05T09:15:08.340Z,65.53
2019-04-05T09:17:40.196Z,65.34
2019-04-05T09:20:12.481Z,65.15
2019-04-05T09:22:44.525Z,65.36
2019-04-05T09:25:16.379Z,65.81
2019-04-05T09:27:47.595Z,65.77
2019-04-05T09:30:19.284Z,65.52
2019-04-05T09:32:51.159Z,65.73
2019-04-05T09:35:23.032Z,65.61
2019-04-05T09:37:55.048Z,65.22
2019-04-05T09:40:26.927Z,65.16
2019-04-05T09:42:59.817Z,65.12
2019-04-05T09:45:31.750Z,65.33
2019-04-05T09:48:03.713Z,65.09
2019-04-05T09:50:35.673Z,65.00
2019-04-05T09:53:07.485Z,65.05
2019-04-05T09:55:38.759Z,65.37
2019-04-05T09:58:10.520Z,65.25
2019-04-05T10:00:42.362Z,65.11
2019-04-05T10:03:14.160Z,64.93
2019-04-05T10:05:45.402Z,64.35
2019-04-05T10:08:17.134Z,64.14
2019-04-05T10:10:49.197Z,63.81
2019-04-05T10:13:21.099Z,64.22
2019-04-05T10:15:53.047Z,63.58
2019-04-05T10:18:24.932Z,63.34
2019-04-05T10:20:56.859Z,62.64
2019-04-05T10:23:28.788Z,62.09
2019-04-05T10:26:00.022Z,61.70
2019-04-05T10:28:31.796Z,62.04
2019-04-05T10:31:03.742Z,61.97
2019-04-05T10:33:35.667Z,61.76
2019-04-05T10:36:07.595Z,61.20
2019-04-05T10:38:39.497Z,61.31
2019-04-05T10:41:11.431Z,60.69
2019-04-05T10:43:47.756Z,60.30
2019-04-05T10:46:19.787Z,59.94
2019-04-05T10:48:51.787Z,59.71
2019-04-05T10:51:26.207Z,59.43
2019-04-05T10:54:00.519Z,59.20
2019-04-05T10:56:32.491Z,59.08
2019-04-05T10:59:04.524Z,58.73
2019-04-05T11:01:40.807Z,58.43
2019-04-05T11:04:12.655Z,58.46
2019-04-05T11:06:44.531Z,57.93
2019-04-05T11:09:16.549Z,57.96
2019-04-05T11:11:48.507Z,57.70
2019-04-05T11:14:20.486Z,57.55
2019-04-05T11:16:58.270Z,57.51
2019-04-05T11:19:25.358Z,57.33
2019-04-05T11:21:57.101Z,56.93
2019-04-05T11:24:29.116Z,55.87
2019-04-05T11:27:01.620Z,55.98
2019-04-05T11:29:33.368Z,55.98
2019-04-05T11:32:08.416Z,55.61
2019-04-05T11:34:43.152Z,54.64
2019-04-05T11:37:16.854Z,54.38
2019-04-05T11:39:48.752Z,54.38
2019-04-05T11:42:26.031Z,54.37
2019-04-05T11:45:03.627Z,54.23
2019-04-05T11:47:39.290Z,54.15
2019-04-05T11:50:12.174Z,53.38
2019-04-05T11:52:45.730Z,53.67
2019-04-05T11:55:18.431Z,52.87
2019-04-05T11:57:49.906Z,52.90
2019-04-05T12:00:26.732Z,52.92
2019-04-05T12:03:02.068Z,52.01
2019-04-05T12:05:33.351Z,51.71
2019-04-05T12:08:06.934Z,50.94
2019-04-05T12:10:38.431Z,50.81
2019-04-05T12:13:10.290Z,50.43
2019-04-05T12:15:42.216Z,50.47
2019-04-05T12:18:19.471Z,49.39
2019-04-05T12:20:55.448Z,49.46
2019-04-05T12:23:21.382Z,50.06
2019-04-05T12:25:54.680Z,49.67
2019-04-05T12:28:26.814Z,49.73
2019-04-05T12:30:58.703Z,48.92
2019-04-05T12:33:30.588Z,48.36
2019-04-05T12:36:02.586Z,48.25
2019-04-05T12:38:34.377Z,47.67
2019-04-05T12:41:10.697Z,47.70
2019-04-05T12:43:43.676Z,48.29
2019-04-05T12:46:15.879Z,47.24
2019-04-05T12:48:46.718Z,46.64
2019-04-05T12:51:18.591Z,46.96
2019-04-05T12:53:49.890Z,46.67
2019-04-05T12:56:21.726Z,46.39
2019-04-05T12:58:55.716Z,46.67
2019-04-05T13:01:27.154Z,46.54
2019-04-05T13:03:59.028Z,46.83
2019-04-05T13:06:30.857Z,47.29
2019-04-05T13:09:05.419Z,46.77
2019-04-05T13:11:36.438Z,46.10
2019-04-05T13:14:08.320Z,46.05
2019-04-05T13:16:40.167Z,46.64
2019-04-05T13:19:12.082Z,46.46
2019-04-05T13:21:43.923Z,45.59
2019-04-05T13:24:15.782Z,45.38
2019-04-05T13:26:47.607Z,45.29
2019-04-05T13:29:19.666Z,45.26
2019-04-05T13:31:52.072Z,45.42
2019-04-05T13:34:25.645Z,45.06
2019-04-05T13:36:56.746Z,45.09
2019-04-05T13:39:29.692Z,45.23
2019-04-05T13:42:02.498Z,43.84
2019-04-05T13:44:34.358Z,44.68
2019-04-05T13:47:06.526Z,44.28
2019-04-05T13:49:40.766Z,44.34
2019-04-05T13:52:12.926Z,43.79
2019-04-05T13:54:44.950Z,43.60
2019-04-05T13:57:16.173Z,43.58
2019-04-05T13:59:48.070Z,43.29
2019-04-05T14:02:21.158Z,42.79
2019-04-05T14:04:54.329Z,42.62
2019-04-05T14:07:27.070Z,42.95
2019-04-05T14:09:58.804Z,42.42
2019-04-05T14:12:31.430Z,41.92
2019-04-05T14:15:02.549Z,40.54
2019-04-05T14:17:34.433Z,40.81
2019-04-05T14:20:09.074Z,40.70
2019-04-05T14:22:40.966Z,42.15
2019-04-05T14:25:13.568Z,42.85
2019-04-05T14:27:44.802Z,55.97
2019-04-05T14:30:17.273Z,54.96
2019-04-05T14:32:51.130Z,55.61
2019-04-05T14:35:24.376Z,52.99
2019-04-05T14:37:55.666Z,52.95
2019-04-05T14:40:29.394Z,53.35
2019-04-05T14:43:01.206Z,53.04
2019-04-05T14:45:33.081Z,52.77
2019-04-05T14:48:05.145Z,53.06
2019-04-05T14:50:36.992Z,52.69
2019-04-05T14:53:08.885Z,51.88
2019-04-05T14:55:40.675Z,52.80
2019-04-05T14:58:12.585Z,53.41
2019-04-05T15:00:47.091Z,54.13
2019-04-05T15:03:18.029Z,53.87
2019-04-05T15:05:50.049Z,53.77
2019-04-05T15:08:23.347Z,54.08
2019-04-05T15:10:58.407Z,53.84
2019-04-05T15:13:31.853Z,53.13
2019-04-05T15:16:03.865Z,52.43
2019-04-05T15:18:39.021Z,53.67
2019-04-05T15:21:14.570Z,54.28
2019-04-05T15:23:46.826Z,53.36
2019-04-05T15:26:21.355Z,52.36
2019-04-05T15:28:55.776Z,53.06
2019-04-05T15:31:30.416Z,52.80
2019-04-05T15:34:08.045Z,52.96
2019-04-05T15:36:41.858Z,53.08
2019-04-05T15:39:46.488Z,52.37
2019-04-05T15:41:57.226Z,52.79
2019-04-05T15:44:37.211Z,52.47
2019-04-05T15:47:13.686Z,52.73
2019-04-05T15:49:51.532Z,53.52
2019-04-05T15:52:21.741Z,54.14
2019-04-05T15:54:57.047Z,55.58
2019-04-05T15:57:34.418Z,55.61
2019-04-05T16:00:10.396Z,56.14
2019-04-05T16:02:43.067Z,56.79
2019-04-05T16:05:16.731Z,57.30
2019-04-05T16:07:48.698Z,57.19
2019-04-05T16:10:19.907Z,57.33
2019-04-05T16:12:51.167Z,58.03
2019-04-05T16:15:23.097Z,58.79
2019-04-05T16:17:55.065Z,60.68
2019-04-05T16:20:27.047Z,62.04
2019-04-05T16:22:58.888Z,62.49
2019-04-05T16:25:31.009Z,62.31
2019-04-05T16:28:02.972Z,62.79
2019-04-05T16:30:35.723Z,63.18
2019-04-05T16:33:07.508Z,63.74
2019-04-05T16:35:38.777Z,64.22
2019-04-05T16:38:10.892Z,63.77
2019-04-05T16:40:42.890Z,64.70
2019-04-05T16:43:14.768Z,65.79
2019-04-05T16:45:46.816Z,65.86
2019-04-05T16:48:19.788Z,65.55
2019-04-05T16:50:51.969Z,65.34
2019-04-05T16:53:24.897Z,65.23
2019-04-05T16:55:56.954Z,65.45
2019-04-05T16:58:29.026Z,65.41
2019-04-05T17:01:01.304Z,64.13
2019-04-05T17:03:33.429Z,64.51
2019-04-05T17:06:06.589Z,64.76
2019-04-05T17:08:37.947Z,65.30
2019-04-05T17:11:10.970Z,65.59
2019-04-05T17:13:43.020Z,65.03
2019-04-05T17:16:15.161Z,65.89
2019-04-05T17:18:47.312Z,66.55
2019-04-05T17:21:19.236Z,66.56
2019-04-05T17:23:50.520Z,66.39
2019-04-05T17:26:22.421Z,65.91
2019-04-05T17:28:54.419Z,65.71
2019-04-05T17:31:25.660Z,64.72
2019-04-05T17:33:57.628Z,64.20
2019-04-05T17:36:30.575Z,63.06
2019-04-05T17:39:01.898Z,63.22
2019-04-05T17:41:35.679Z,63.62
2019-04-05T17:44:07.789Z,63.38
2019-04-05T17:46:39.171Z,63.82
2019-04-05T17:49:10.486Z,64.35
2019-04-05T17:51:43.016Z,64.57
2019-04-05T17:54:19.894Z,64.64
2019-04-05T17:56:53.633Z,64.88
2019-04-05T17:59:28.066Z,65.23
2019-04-05T18:01:59.364Z,65.34
2019-04-05T18:04:30.663Z,65.39
2019-04-05T18:07:02.561Z,65.92
2019-04-05T18:09:34.604Z,65.95
2019-04-05T18:12:05.885Z,65.69
2019-04-05T18:14:37.059Z,65.80
2019-04-05T18:17:08.251Z,65.94
2019-04-05T18:19:40.204Z,66.23
2019-04-05T18:22:11.609Z,66.21
2019-04-05T18:24:43.413Z,66.13
2019-04-05T18:27:15.393Z,66.50
2019-04-05T18:29:46.799Z,66.81
2019-04-05T18:32:18.021Z,66.70
2019-04-05T18:34:49.167Z,66.34
2019-04-05T18:37:20.622Z,66.38
2019-04-05T18:39:53.199Z,66.88
2019-04-05T18:42:27.247Z,67.26
2019-04-05T18:44:59.140Z,67.34
2019-04-05T18:47:31.015Z,67.41
2019-04-05T18:50:03.477Z,67.40
2019-04-05T18:52:35.649Z,67.66
2019-04-05T18:55:07.006Z,67.96
2019-04-05T19:15:26.973Z,69.41
2019-04-05T19:17:59.023Z,69.36
2019-04-05T19:20:30.527Z,68.96
2019-04-05T19:23:01.855Z,68.37
2019-04-05T19:25:36.096Z,68.05
2019-04-05T19:28:07.584Z,68.07
2019-04-05T19:49:48.316Z,62.61
2019-04-05T19:52:08.935Z,61.41
2019-04-05T19:55:09.530Z,61.46
2019-04-05T19:57:43.434Z,61.32
2019-04-05T20:00:15.075Z,61.19
2019-04-05T20:02:53.715Z,61.68
2019-04-05T20:05:30.770Z,62.27
2019-04-05T20:08:06.165Z,61.97
2019-04-05T20:10:37.491Z,62.40
2019-04-05T20:13:10.037Z,61.81
2019-04-05T20:15:44.137Z,61.47
2019-04-05T20:18:16.955Z,61.19
2019-04-05T20:20:53.609Z,61.50
2019-04-05T20:23:21.407Z,61.23
2019-04-05T20:25:53.022Z,61.83
2019-04-05T20:28:24.259Z,62.23
2019-04-05T20:30:56.139Z,62.56
2019-04-05T20:33:28.197Z,62.57
2019-04-05T20:35:59.633Z,62.69
2019-04-05T20:38:30.914Z,62.50
2019-04-05T20:41:03.115Z,62.27
2019-04-05T20:43:34.598Z,61.61
2019-04-05T20:46:06.740Z,61.74
2019-04-05T20:48:38.737Z,62.13
2019-04-05T20:51:10.686Z,62.61
2019-04-05T20:53:42.686Z,62.80
2019-04-05T20:56:14.782Z,63.13
2019-04-05T20:58:46.710Z,63.52
2019-04-05T21:01:18.014Z,63.79
2019-04-05T21:03:54.611Z,64.31
2019-04-05T21:06:30.332Z,64.92
2019-04-05T21:09:07.641Z,65.47
2019-04-05T21:11:41.461Z,65.82
2019-04-05T21:14:13.273Z,66.09
2019-04-05T21:16:45.062Z,66.63
2019-04-05T21:19:18.822Z,67.00
2019-04-05T21:21:52.014Z,67.51
2019-04-05T21:24:35.550Z,67.30
2019-04-05T21:26:58.369Z,67.51
2019-04-05T21:29:29.820Z,67.41
2019-04-05T21:32:02.043Z,67.52
2019-04-05T21:34:34.178Z,68.24
2019-04-05T21:37:06.535Z,68.44
2019-04-05T21:39:38.974Z,68.28
2019-04-05T21:42:10.410Z,68.01
2019-04-05T21:44:41.660Z,68.14
2019-04-05T21:47:13.647Z,68.27
2019-04-05T21:49:45.192Z,68.29
2019-04-05T21:52:17.322Z,67.83
2019-04-05T21:54:49.522Z,67.99
2019-04-05T21:57:20.882Z,68.23
2019-04-05T21:59:53.134Z,66.92
2019-04-05T22:02:24.498Z,66.71
2019-04-05T22:04:56.513Z,66.10
2019-04-05T22:07:28.421Z,66.51
2019-04-05T22:10:00.329Z,65.62
2019-04-05T22:12:33.546Z,65.00
2019-04-05T22:15:04.800Z,63.84
2019-04-05T22:17:37.747Z,64.12
2019-04-05T22:20:09.262Z,64.95
2019-04-05T22:22:40.409Z,64.47
2019-04-05T22:25:11.693Z,64.36
2019-04-05T22:27:43.459Z,64.52
2019-04-05T22:30:15.309Z,63.63
2019-04-05T22:32:47.748Z,63.43
2019-04-05T22:35:18.913Z,62.91
2019-04-05T22:37:53.379Z,63.37
2019-04-05T22:40:25.325Z,63.24
2019-04-05T22:42:56.513Z,63.00
2019-04-05T22:45:28.448Z,63.10
2019-04-05T22:48:00.373Z,62.65
2019-04-05T22:50:32.261Z,62.14
2019-04-05T22:53:04.114Z,63.05
2019-04-05T22:55:36.061Z,62.72
2019-04-05T22:58:07.876Z,62.74
2019-04-05T23:00:39.070Z,63.06
2019-04-05T23:03:15.231Z,63.28
2019-04-05T23:05:48.297Z,63.00
2019-04-05T23:08:20.241Z,62.81
2019-04-05T23:10:52.114Z,63.05
2019-04-05T23:13:23.375Z,63.37
2019-04-05T23:15:57.141Z,63.52
2019-04-05T23:18:28.913Z,62.90
2019-04-05T23:21:00.781Z,63.40
2019-04-05T23:23:32.696Z,64.02
2019-04-05T23:26:03.945Z,64.46
2019-04-05T23:28:35.069Z,64.77
2019-04-05T23:31:07.089Z,64.88
2019-04-05T23:33:38.281Z,65.00
2019-04-05T23:36:10.120Z,64.75
2019-04-05T23:38:42.012Z,64.60
2019-04-05T23:41:13.997Z,64.82
2019-04-05T23:43:45.197Z,65.41
2019-04-05T23:46:17.069Z,65.84
2019-04-05T23:48:48.924Z,66.38
2019-04-05T23:51:20.773Z,66.72
2019-04-05T23:53:52.665Z,66.96
2019-04-05T23:56:24.636Z,67.22
2019-04-05T23:58:55.897Z,66.95
